Time;durP1;ratioP1;P1;durP2;ratioP2;P2;SDS_P1;SDS_P2;PMS_P1;PMS_P2;Temp;Humidity;BMP_temperature;BMP_pressure;BME280_temperature;BME280_humidity;BME280_pressure;Samples;Min_cycle;Max_cycle;Signal;HPM_P1;HPM_P2
2022/09/19 00:01:45;;;;;;;0.60;0.60;;;9.30;99.90;;;;;;5111275;27;20469;-81
2022/09/19 00:04:16;;;;;;;0.90;0.50;;;9.40;99.90;;;;;;5105211;28;20461;-82
2022/09/19 00:06:45;;;;;;;1.20;0.47;;;9.40;99.90;;;;;;5105890;27;20470;-80
2022/09/19 00:09:14;;;;;;;0.70;0.60;;;9.50;99.90;;;;;;5102617;27;20470;-81
2022/09/19 00:11:44;;;;;;;0.63;0.53;;;9.50;99.90;;;;;;5104918;27;20470;-81
2022/09/19 00:14:14;;;;;;;0.60;0.60;;;9.60;99.90;;;;;;5097657;27;20488;-81
2022/09/19 00:16:44;;;;;;;1.37;0.77;;;9.70;99.90;;;;;;5100071;28;20527;-82
2022/09/19 00:19:15;;;;;;;5.80;0.70;;;9.50;99.90;;;;;;5106905;27;20468;-82
2022/09/19 00:21:43;;;;;;;1.73;0.73;;;9.20;99.90;;;;;;5102255;27;20455;-83
2022/09/19 00:26:57;;;;;;;0.67;0.50;;;8.80;99.90;;;;;;5104629;27;20540;-82
2022/09/19 00:29:25;;;;;;;1.90;0.67;;;8.80;99.90;;;;;;5103773;28;21051;-83
2022/09/19 00:31:53;;;;;;;1.90;0.70;;;8.80;99.90;;;;;;5099830;27;20533;-82
2022/09/19 00:34:22;;;;;;;0.60;0.60;;;8.70;99.90;;;;;;5105995;27;20481;-82
2022/09/19 00:36:49;;;;;;;1.93;0.80;;;8.60;99.90;;;;;;5091103;28;20494;-85
2022/09/19 00:39:18;;;;;;;1.10;0.70;;;8.50;99.90;;;;;;5095574;28;20473;-83
2022/09/19 00:41:46;;;;;;;0.93;0.90;;;8.40;99.90;;;;;;5097096;28;20512;-82
2022/09/19 00:45:02;;;;;;;1.00;0.73;;;8.30;99.90;;;;;;5100825;27;20519;-82
2022/09/19 00:47:40;;;;;;;1.30;1.10;;;8.20;99.90;;;;;;5071732;28;21010;-83
2022/09/19 00:50:14;;;;;;;0.63;0.63;;;8.20;99.90;;;;;;5098827;28;20863;-85
2022/09/19 00:52:46;;;;;;;0.60;0.60;;;8.20;99.90;;;;;;5105194;27;20470;-83
2022/09/19 00:55:13;;;;;;;1.03;0.70;;;8.20;99.90;;;;;;5100017;28;21110;-85
2022/09/19 00:58:01;;;;;;;1.43;1.03;;;8.10;99.90;;;;;;5107827;27;20472;-84
2022/09/19 01:00:28;;;;;;;5.33;0.93;;;8.20;99.90;;;;;;5101210;27;20467;-83
2022/09/19 01:02:55;;;;;;;1.13;0.90;;;8.20;99.90;;;;;;5099625;27;21049;-84
2022/09/19 01:05:35;;;;;;;1.03;0.90;;;8.30;99.90;;;;;;5101861;27;20521;-83
2022/09/19 01:08:24;;;;;;;2.30;0.90;;;8.30;99.90;;;;;;5103359;27;20965;-83
2022/09/19 01:11:14;;;;;;;1.93;0.80;;;8.20;99.90;;;;;;5093203;27;20473;-83
2022/09/19 01:13:52;;;;;;;0.97;0.80;;;8.20;99.90;;;;;;5106846;28;20489;-84
2022/09/19 01:16:24;;;;;;;0.70;0.70;;;8.20;99.90;;;;;;5107989;27;20867;-83
2022/09/19 01:19:02;;;;;;;0.80;0.70;;;8.20;99.90;;;;;;5097434;28;21359;-82
2022/09/19 01:21:41;;;;;;;5.40;0.90;;;8.20;99.90;;;;;;5101848;27;20469;-84
2022/09/19 01:24:55;;;;;;;1.70;1.13;;;8.20;99.90;;;;;;5103135;27;21208;-83
2022/09/19 01:28:10;;;;;;;2.53;0.80;;;8.20;99.90;;;;;;5101793;28;20454;-83
2022/09/19 01:30:44;;;;;;;0.90;0.90;;;8.20;99.90;;;;;;5048106;28;20519;-84
2022/09/19 01:33:17;;;;;;;0.70;0.70;;;8.20;99.90;;;;;;5102070;27;20538;-83
2022/09/19 01:35:50;;;;;;;0.70;0.60;;;8.20;99.90;;;;;;5108713;27;20470;-83
2022/09/19 01:38:22;;;;;;;0.60;0.60;;;8.20;99.90;;;;;;5101193;28;20471;-83
2022/09/19 01:40:51;;;;;;;1.50;0.67;;;8.10;99.90;;;;;;5101706;27;20451;-83
2022/09/19 01:43:20;;;;;;;1.27;0.50;;;8.10;99.90;;;;;;5108379;27;20557;-83
2022/09/19 01:45:48;;;;;;;0.60;0.40;;;8.10;99.90;;;;;;5102623;27;20465;-84
2022/09/19 01:48:19;;;;;;;0.50;0.40;;;8.10;99.90;;;;;;5102248;27;20450;-85
2022/09/19 01:50:58;;;;;;;0.50;0.40;;;8.00;99.90;;;;;;5100947;28;20489;-83
2022/09/19 01:53:46;;;;;;;4.10;0.53;;;8.00;99.90;;;;;;5097880;27;20610;-82
2022/09/19 01:56:23;;;;;;;0.70;0.67;;;7.90;99.90;;;;;;5095207;28;20979;-83
2022/09/19 01:59:01;;;;;;;0.63;0.40;;;7.90;99.90;;;;;;5101453;27;20462;-84
2022/09/19 02:01:35;;;;;;;0.40;0.30;;;7.90;99.90;;;;;;5105840;27;20500;-86
2022/09/19 02:04:12;;;;;;;0.40;0.40;;;7.80;99.90;;;;;;5097323;27;21031;-83
2022/09/19 02:06:48;;;;;;;0.50;0.40;;;7.80;99.90;;;;;;5098122;27;20515;-83
2022/09/19 02:09:22;;;;;;;0.30;0.20;;;7.80;99.90;;;;;;5098068;28;20498;-84
2022/09/19 02:11:51;;;;;;;0.40;0.30;;;7.80;99.90;;;;;;5098744;28;20541;-83
2022/09/19 02:14:26;;;;;;;0.40;0.30;;;7.80;99.90;;;;;;5102517;28;20611;-83
2022/09/19 02:17:03;;;;;;;0.47;0.30;;;7.80;99.90;;;;;;5102898;28;20828;-86
2022/09/19 02:19:33;;;;;;;0.57;0.40;;;7.80;99.90;;;;;;5096492;27;20470;-84
2022/09/19 02:22:03;;;;;;;0.40;0.30;;;7.80;99.90;;;;;;5090510;27;20995;-84
2022/09/19 02:24:33;;;;;;;0.40;0.30;;;7.80;99.90;;;;;;5101457;27;20476;-83
2022/09/19 02:27:08;;;;;;;0.60;0.60;;;7.80;99.90;;;;;;5099427;28;20545;-85
2022/09/19 02:29:41;;;;;;;0.40;0.30;;;7.70;99.90;;;;;;5100973;27;20500;-83
2022/09/19 02:32:09;;;;;;;0.70;0.40;;;7.80;99.90;;;;;;5119065;27;20454;-83
2022/09/19 02:34:37;;;;;;;0.40;0.40;;;7.70;99.90;;;;;;5107073;27;20536;-84
2022/09/19 02:37:08;;;;;;;2.93;0.33;;;7.80;99.90;;;;;;5088115;27;20518;-84
2022/09/19 02:39:45;;;;;;;0.43;0.40;;;7.80;99.90;;;;;;5091127;28;20544;-84
2022/09/19 02:42:18;;;;;;;0.47;0.30;;;7.80;99.90;;;;;;5100006;28;20458;-86
2022/09/19 02:45:02;;;;;;;0.60;0.30;;;7.80;99.90;;;;;;5098571;28;20565;-84
2022/09/19 02:47:35;;;;;;;0.40;0.30;;;7.80;99.90;;;;;;5094932;28;20458;-84
2022/09/19 02:50:11;;;;;;;0.77;0.40;;;7.80;99.90;;;;;;5104739;28;20468;-86
2022/09/19 02:52:39;;;;;;;0.40;0.30;;;7.80;99.90;;;;;;5099024;28;20459;-85
2022/09/19 02:55:12;;;;;;;0.40;0.33;;;7.80;99.90;;;;;;5105843;27;20489;-83
2022/09/19 02:57:43;;;;;;;0.40;0.30;;;7.70;99.90;;;;;;5096056;28;20838;-83
2022/09/19 03:00:14;;;;;;;1.17;0.30;;;7.60;99.90;;;;;;5102346;28;20479;-86
2022/09/19 03:02:45;;;;;;;0.40;0.30;;;7.60;99.90;;;;;;5099040;28;20453;-84
2022/09/19 03:05:19;;;;;;;0.77;0.40;;;7.60;99.90;;;;;;5096052;28;20465;-84
2022/09/19 03:07:51;;;;;;;0.40;0.30;;;7.60;99.90;;;;;;5086698;28;20466;-84
2022/09/19 03:10:22;;;;;;;0.90;0.30;;;7.50;99.90;;;;;;5092654;28;20443;-84
2022/09/19 03:12:53;;;;;;;0.40;0.20;;;7.50;99.90;;;;;;5094661;28;20816;-84
2022/09/19 03:15:26;;;;;;;0.40;0.37;;;7.50;99.90;;;;;;5087558;28;20488;-85
2022/09/19 03:17:54;;;;;;;0.30;0.20;;;7.50;99.90;;;;;;5108770;27;20465;-84
2022/09/19 03:20:23;;;;;;;2.10;0.37;;;7.40;99.90;;;;;;5092663;28;20483;-84
2022/09/19 03:22:50;;;;;;;0.37;0.30;;;7.40;99.90;;;;;;5100183;28;20514;-84
2022/09/19 03:25:18;;;;;;;0.40;0.20;;;7.40;99.90;;;;;;5099222;28;20959;-83
2022/09/19 03:27:45;;;;;;;0.40;0.30;;;7.40;99.90;;;;;;5110695;28;20515;-84
2022/09/19 03:30:15;;;;;;;0.40;0.30;;;7.30;99.90;;;;;;5120179;28;20576;-83
2022/09/19 03:32:43;;;;;;;0.40;0.23;;;7.30;99.90;;;;;;5097884;27;20457;-84
2022/09/19 03:35:11;;;;;;;0.97;0.30;;;7.20;99.90;;;;;;5098493;28;20501;-84
2022/09/19 03:37:38;;;;;;;0.40;0.20;;;7.10;99.90;;;;;;5101692;28;20465;-83
2022/09/19 03:40:06;;;;;;;0.30;0.20;;;7.10;99.90;;;;;;5106216;28;20510;-84
2022/09/19 03:42:37;;;;;;;0.77;0.30;;;7.00;99.90;;;;;;5107005;28;21014;-84
2022/09/19 03:45:04;;;;;;;0.50;0.37;;;7.00;99.90;;;;;;5105367;28;20477;-84
2022/09/19 03:47:32;;;;;;;0.40;0.30;;;6.90;99.90;;;;;;5092643;28;20818;-84
2022/09/19 03:50:00;;;;;;;2.63;0.20;;;6.90;99.90;;;;;;5105873;28;20453;-85
2022/09/19 03:52:27;;;;;;;0.50;0.47;;;7.00;99.90;;;;;;5103860;28;20534;-83
2022/09/19 03:54:56;;;;;;;0.40;0.20;;;7.00;99.90;;;;;;5095520;28;20597;-84
2022/09/19 03:57:23;;;;;;;1.23;0.40;;;7.10;99.90;;;;;;5113388;28;20461;-85
2022/09/19 03:59:50;;;;;;;0.60;0.30;;;7.20;99.90;;;;;;5100545;28;20461;-84
2022/09/19 04:02:17;;;;;;;0.40;0.20;;;7.20;99.90;;;;;;5103052;28;20517;-84
2022/09/19 04:04:44;;;;;;;0.40;0.20;;;7.20;99.90;;;;;;5087403;28;20471;-84
2022/09/19 04:07:12;;;;;;;0.40;0.30;;;7.20;99.90;;;;;;5086326;28;20535;-83
2022/09/19 04:09:39;;;;;;;2.07;0.40;;;7.30;99.90;;;;;;5096987;28;20466;-84
2022/09/19 04:12:06;;;;;;;0.50;0.30;;;7.30;99.90;;;;;;5086310;28;20948;-83
2022/09/19 04:14:34;;;;;;;3.07;0.40;;;7.30;99.90;;;;;;5097906;28;21226;-84
2022/09/19 04:17:01;;;;;;;0.87;0.87;;;7.30;99.90;;;;;;5107657;28;20605;-84
2022/09/19 04:19:30;;;;;;;0.40;0.20;;;7.30;99.90;;;;;;5091797;28;20539;-84
2022/09/19 04:22:01;;;;;;;0.60;0.23;;;7.30;99.90;;;;;;5096083;28;20459;-84
2022/09/19 04:24:29;;;;;;;0.40;0.30;;;7.30;99.90;;;;;;5099883;28;20974;-84
2022/09/19 04:27:02;;;;;;;0.50;0.30;;;7.20;99.90;;;;;;5101025;28;20471;-84
2022/09/19 04:29:29;;;;;;;0.50;0.50;;;7.30;99.90;;;;;;5097468;28;20549;-84
2022/09/19 04:32:00;;;;;;;0.60;0.50;;;7.30;99.90;;;;;;5100924;27;20473;-84
2022/09/19 04:34:28;;;;;;;2.30;0.37;;;7.40;99.90;;;;;;5106261;27;20570;-84
2022/09/19 04:36:56;;;;;;;2.30;0.30;;;7.30;99.90;;;;;;5105955;28;20537;-84
2022/09/19 04:39:23;;;;;;;0.50;0.40;;;7.30;99.90;;;;;;5099251;27;20465;-84
2022/09/19 04:41:53;;;;;;;0.60;0.40;;;7.30;99.90;;;;;;5111248;27;21003;-84
2022/09/19 04:44:21;;;;;;;1.60;0.30;;;7.40;99.90;;;;;;5099870;28;20490;-83
2022/09/19 04:46:50;;;;;;;0.30;0.20;;;7.40;99.90;;;;;;5103126;27;20463;-86
2022/09/19 04:49:17;;;;;;;1.10;0.33;;;7.40;99.90;;;;;;5091069;28;20470;-85
2022/09/19 04:51:45;;;;;;;0.83;0.33;;;7.40;99.90;;;;;;5094126;27;20467;-86
2022/09/19 04:54:14;;;;;;;0.40;0.30;;;7.40;99.90;;;;;;5104719;27;20542;-85
2022/09/19 04:56:44;;;;;;;1.10;0.30;;;7.40;99.90;;;;;;5105487;27;20486;-84
2022/09/19 04:59:12;;;;;;;0.50;0.30;;;7.40;99.90;;;;;;5095839;28;21018;-86
2022/09/19 05:01:39;;;;;;;0.60;0.30;;;7.40;99.90;;;;;;5099459;28;20469;-83
2022/09/19 05:04:08;;;;;;;0.50;0.30;;;7.40;99.90;;;;;;5099362;27;20523;-83
2022/09/19 05:06:35;;;;;;;0.40;0.40;;;7.40;99.90;;;;;;5113309;27;20462;-82
2022/09/19 05:09:03;;;;;;;0.47;0.30;;;7.30;99.90;;;;;;5101421;27;20458;-82
2022/09/19 05:11:30;;;;;;;0.97;0.40;;;7.40;99.90;;;;;;5106617;28;20895;-82
2022/09/19 05:13:58;;;;;;;0.60;0.40;;;7.40;99.90;;;;;;5107122;27;20515;-85
2022/09/19 05:16:27;;;;;;;0.60;0.47;;;7.40;99.90;;;;;;5099639;27;20506;-82
2022/09/19 05:18:54;;;;;;;1.23;0.40;;;7.40;99.90;;;;;;5100817;27;20470;-82
2022/09/19 05:21:20;;;;;;;0.40;0.30;;;7.40;99.90;;;;;;5097842;28;20519;-82
2022/09/19 05:23:47;;;;;;;0.70;0.40;;;7.30;99.90;;;;;;5101324;28;20490;-82
2022/09/19 05:26:16;;;;;;;0.40;0.40;;;7.30;99.90;;;;;;5090723;28;20541;-82
2022/09/19 05:28:45;;;;;;;0.73;0.40;;;7.30;99.90;;;;;;5103526;27;20460;-82
2022/09/19 05:31:13;;;;;;;0.60;0.40;;;7.30;99.90;;;;;;5102250;27;20517;-82
2022/09/19 05:33:41;;;;;;;0.50;0.40;;;7.30;99.90;;;;;;5103498;27;20960;-82
2022/09/19 05:36:09;;;;;;;0.50;0.40;;;7.30;99.90;;;;;;5100621;27;20501;-82
2022/09/19 05:38:36;;;;;;;0.40;0.30;;;7.30;99.90;;;;;;5104207;27;20979;-82
2022/09/19 05:41:04;;;;;;;0.40;0.30;;;7.30;99.90;;;;;;5094749;28;20463;-81
2022/09/19 05:43:32;;;;;;;0.80;0.40;;;7.30;99.90;;;;;;5104265;28;20462;-83
2022/09/19 05:46:00;;;;;;;0.40;0.37;;;7.30;99.90;;;;;;5098148;27;20461;-84
2022/09/19 05:48:29;;;;;;;0.70;0.40;;;7.30;99.90;;;;;;5100715;27;20530;-81
2022/09/19 05:50:58;;;;;;;0.50;0.50;;;7.40;99.90;;;;;;5101782;27;20601;-82
2022/09/19 05:56:09;;;;;;;0.70;0.53;;;7.40;99.90;;;;;;5104376;27;20574;-82
2022/09/19 05:58:37;;;;;;;2.57;0.50;;;7.50;99.90;;;;;;5102631;27;20471;-84
2022/09/19 06:01:05;;;;;;;0.90;0.67;;;7.50;99.90;;;;;;5096739;28;20489;-82
2022/09/19 06:03:34;;;;;;;1.90;0.93;;;7.50;99.90;;;;;;5104380;27;20886;-83
2022/09/19 06:06:08;;;;;;;1.30;0.60;;;7.50;99.90;;;;;;5099973;28;20461;-81
2022/09/19 06:08:35;;;;;;;3.03;0.63;;;7.50;99.90;;;;;;5111952;27;20541;-82
2022/09/19 06:11:02;;;;;;;1.40;0.90;;;7.50;99.90;;;;;;5102374;27;20457;-90
2022/09/19 06:14:13;;;;;;;1.63;0.40;;;7.40;99.90;;;;;;5103617;28;21046;-82
2022/09/19 06:16:18;;;;;;;0.40;0.30;;;7.40;99.90;;;;;;5099640;27;20553;-83
2022/09/19 06:18:45;;;;;;;3.17;0.47;;;7.40;99.90;;;;;;5095407;27;21179;-82
2022/09/19 06:21:13;;;;;;;3.63;0.60;;;7.50;99.90;;;;;;5092330;28;20527;-82
2022/09/19 06:23:40;;;;;;;0.50;0.40;;;7.50;99.90;;;;;;5103090;27;21012;-81
2022/09/19 06:26:07;;;;;;;1.57;0.30;;;7.60;99.90;;;;;;5101791;27;20468;-82
2022/09/19 06:28:35;;;;;;;3.03;0.40;;;7.60;99.90;;;;;;5095482;27;20527;-81
2022/09/19 06:31:03;;;;;;;0.60;0.40;;;7.60;99.90;;;;;;5102933;27;21004;-83
2022/09/19 06:33:30;;;;;;;0.40;0.30;;;7.60;99.90;;;;;;5106600;27;20458;-84
2022/09/19 06:35:58;;;;;;;0.90;0.50;;;7.60;99.90;;;;;;5102673;28;20481;-84
2022/09/19 06:38:27;;;;;;;0.60;0.30;;;7.60;99.90;;;;;;5100760;27;20540;-83
2022/09/19 06:40:54;;;;;;;1.67;0.60;;;7.60;99.90;;;;;;5100521;28;20518;-83
2022/09/19 06:43:21;;;;;;;1.30;0.40;;;7.60;99.90;;;;;;5099282;27;20470;-84
2022/09/19 06:45:48;;;;;;;0.40;0.30;;;7.70;99.90;;;;;;5101037;27;21052;-83
2022/09/19 06:48:15;;;;;;;0.73;0.40;;;7.70;99.90;;;;;;5101795;27;20465;-83
2022/09/19 06:50:46;;;;;;;0.70;0.53;;;7.70;99.90;;;;;;5100499;28;20503;-85
2022/09/19 06:53:13;;;;;;;0.87;0.50;;;7.70;99.90;;;;;;5103996;28;20467;-83
2022/09/19 06:55:41;;;;;;;1.33;0.40;;;7.70;99.90;;;;;;5103271;27;20911;-84
2022/09/19 06:58:10;;;;;;;0.40;0.30;;;7.60;99.90;;;;;;5099520;27;20540;-84
2022/09/19 07:00:38;;;;;;;0.53;0.33;;;7.70;99.90;;;;;;5096504;28;20460;-83
2022/09/19 07:03:07;;;;;;;3.70;0.60;;;7.70;99.90;;;;;;5111973;27;20472;-83
2022/09/19 07:05:35;;;;;;;2.03;0.50;;;7.80;99.90;;;;;;5108368;28;20460;-83
2022/09/19 07:08:03;;;;;;;0.50;0.30;;;7.80;99.90;;;;;;5100108;28;20964;-83
2022/09/19 07:10:30;;;;;;;0.80;0.40;;;7.70;99.90;;;;;;5101902;27;20519;-85
2022/09/19 07:13:01;;;;;;;1.43;0.50;;;7.80;99.90;;;;;;5100825;28;20457;-83
2022/09/19 07:15:28;;;;;;;0.40;0.30;;;7.80;99.90;;;;;;5097110;27;20482;-85
2022/09/19 07:17:56;;;;;;;0.90;0.40;;;7.80;99.90;;;;;;5102060;27;20470;-84
2022/09/19 07:20:23;;;;;;;1.20;0.40;;;7.90;99.90;;;;;;5098762;27;20517;-84
2022/09/19 07:22:59;;;;;;;0.73;0.40;;;7.80;99.90;;;;;;5098251;28;22073;-83
2022/09/19 07:25:27;;;;;;;1.37;0.50;;;7.80;99.90;;;;;;5092866;27;20463;-83
2022/09/19 07:28:00;;;;;;;1.87;0.60;;;7.80;99.90;;;;;;5102034;28;20548;-84
2022/09/19 07:30:28;;;;;;;0.97;0.40;;;7.80;99.90;;;;;;5099197;28;20485;-84
2022/09/19 07:32:57;;;;;;;0.40;0.40;;;7.80;99.90;;;;;;5104379;28;20454;-84
2022/09/19 07:35:25;;;;;;;1.33;0.50;;;7.90;99.90;;;;;;5096096;28;20486;-83
2022/09/19 07:37:52;;;;;;;2.10;0.83;;;7.90;99.90;;;;;;5093636;28;20480;-86
2022/09/19 07:40:19;;;;;;;8.50;3.70;;;8.00;99.90;;;;;;5100982;28;20454;-83
2022/09/19 07:42:46;;;;;;;3.43;1.87;;;8.00;99.90;;;;;;5099336;28;20952;-84
2022/09/19 07:45:16;;;;;;;1.53;1.37;;;7.90;99.90;;;;;;5113544;28;21039;-84
2022/09/19 07:47:44;;;;;;;3.43;3.23;;;7.80;99.90;;;;;;5104082;28;20463;-85
2022/09/19 07:50:12;;;;;;;1.00;1.00;;;7.80;99.90;;;;;;5102597;28;20514;-84
2022/09/19 07:52:40;;;;;;;0.60;0.60;;;7.90;99.90;;;;;;5102664;28;20453;-85
2022/09/19 07:55:07;;;;;;;19.97;14.07;;;8.00;99.90;;;;;;5103451;28;20484;-85
2022/09/19 07:57:35;;;;;;;10.47;6.30;;;8.00;99.90;;;;;;5093762;28;20456;-84
2022/09/19 08:00:02;;;;;;;4.40;4.10;;;7.90;99.90;;;;;;5091859;28;20463;-83
2022/09/19 08:02:31;;;;;;;4.37;3.83;;;7.90;99.90;;;;;;5095406;28;20460;-84
2022/09/19 08:04:58;;;;;;;5.30;4.83;;;7.90;99.90;;;;;;5099924;28;20560;-82
2022/09/19 08:07:25;;;;;;;2.40;2.20;;;8.00;99.90;;;;;;5102020;28;20546;-84
2022/09/19 08:09:52;;;;;;;1.53;0.90;;;8.00;99.90;;;;;;5105869;27;20454;-84
2022/09/19 08:12:19;;;;;;;6.07;5.47;;;8.00;99.90;;;;;;5102643;27;21015;-84
2022/09/19 08:14:46;;;;;;;2.80;2.00;;;8.10;99.90;;;;;;5099677;28;21228;-84
2022/09/19 08:17:13;;;;;;;0.63;0.60;;;8.10;99.90;;;;;;5101846;27;20481;-84
2022/09/19 08:19:42;;;;;;;1.00;0.50;;;8.20;99.90;;;;;;5103063;27;20459;-84
2022/09/19 08:22:10;;;;;;;1.87;0.50;;;8.30;99.90;;;;;;5116548;27;20452;-85
2022/09/19 08:24:46;;;;;;;2.20;1.00;;;8.30;99.90;;;;;;5098735;27;20473;-87
2022/09/19 08:27:14;;;;;;;0.67;0.60;;;8.30;99.90;;;;;;5096886;27;20544;-86
2022/09/19 08:29:41;;;;;;;1.37;0.50;;;8.30;99.90;;;;;;5101986;28;20546;-84
2022/09/19 08:32:08;;;;;;;0.67;0.53;;;8.40;99.90;;;;;;5108093;27;20434;-85
2022/09/19 08:34:35;;;;;;;0.50;0.50;;;8.30;99.90;;;;;;5104258;28;20478;-84
2022/09/19 08:37:04;;;;;;;3.27;1.17;;;8.40;99.90;;;;;;5104452;28;20493;-85
2022/09/19 08:39:31;;;;;;;2.10;0.40;;;8.50;99.90;;;;;;5099990;28;20465;-84
2022/09/19 08:42:12;;;;;;;4.63;0.67;;;8.60;99.90;;;;;;5097616;28;20487;-84
2022/09/19 08:44:51;;;;;;;0.60;0.50;;;8.70;99.90;;;;;;5103283;28;20540;-84
2022/09/19 08:47:21;;;;;;;1.53;0.70;;;8.80;99.90;;;;;;5106654;27;21030;-84
2022/09/19 08:49:53;;;;;;;0.43;0.37;;;8.90;99.90;;;;;;5103543;28;20468;-83
2022/09/19 08:52:31;;;;;;;1.73;0.80;;;9.00;99.90;;;;;;5107123;27;20446;-83
2022/09/19 08:55:01;;;;;;;3.00;1.10;;;9.10;99.90;;;;;;5105489;27;20462;-83
2022/09/19 08:57:31;;;;;;;2.00;0.60;;;9.20;99.90;;;;;;5105595;28;20473;-83
2022/09/19 09:00:04;;;;;;;0.70;0.50;;;9.20;99.90;;;;;;5101560;27;20450;-84
2022/09/19 09:02:40;;;;;;;1.90;0.87;;;9.20;99.90;;;;;;5096323;28;20454;-83
2022/09/19 09:05:13;;;;;;;0.50;0.40;;;9.30;99.90;;;;;;5100550;28;20466;-83
2022/09/19 09:07:49;;;;;;;0.40;0.30;;;9.40;99.90;;;;;;5113281;27;20548;-83
2022/09/19 09:10:25;;;;;;;1.10;0.60;;;9.50;99.90;;;;;;5111922;27;20494;-83
2022/09/19 09:13:04;;;;;;;2.03;0.40;;;9.50;99.90;;;;;;5100352;27;20521;-82
2022/09/19 09:15:46;;;;;;;0.97;0.40;;;9.60;99.90;;;;;;5105532;28;20477;-83
2022/09/19 09:18:39;;;;;;;0.50;0.50;;;9.60;99.90;;;;;;5109037;27;20461;-82
2022/09/19 09:21:15;;;;;;;2.00;0.43;;;9.40;99.90;;;;;;5102798;28;20520;-83
2022/09/19 09:23:46;;;;;;;0.70;0.40;;;9.40;99.90;;;;;;5102104;28;20457;-84
2022/09/19 09:26:15;;;;;;;3.40;0.60;;;9.30;99.90;;;;;;5107308;28;20438;-83
2022/09/19 09:28:45;;;;;;;1.13;0.40;;;9.20;99.90;;;;;;5111482;27;20476;-82
2022/09/19 09:31:24;;;;;;;0.50;0.40;;;9.40;99.90;;;;;;5102158;27;20496;-83
2022/09/19 09:33:56;;;;;;;0.60;0.40;;;9.30;99.90;;;;;;5117541;27;20445;-81
2022/09/19 09:36:31;;;;;;;0.60;0.40;;;9.30;99.90;;;;;;5100990;27;20490;-82
2022/09/19 09:39:05;;;;;;;3.80;0.40;;;9.30;99.90;;;;;;5116252;27;20464;-83
2022/09/19 09:41:47;;;;;;;0.90;0.40;;;9.20;99.90;;;;;;5106078;27;20442;-83
2022/09/19 09:44:51;;;;;;;1.90;0.53;;;9.30;99.90;;;;;;5100562;28;20874;-82
2022/09/19 09:47:30;;;;;;;1.70;0.47;;;9.40;99.90;;;;;;5083673;27;20466;-83
2022/09/19 09:50:07;;;;;;;0.70;0.30;;;9.60;99.90;;;;;;5096695;28;20454;-82
2022/09/19 09:52:39;;;;;;;1.37;0.50;;;9.90;99.90;;;;;;5096872;28;20446;-81
2022/09/19 09:58:26;;;;;;;2.60;0.30;;;9.80;99.90;;;;;;5097246;27;20579;-82
2022/09/19 10:04:03;;;;;;;1.70;0.40;;;9.40;99.90;;;;;;5097826;28;21040;-82
2022/09/19 10:06:35;;;;;;;1.57;0.30;;;9.50;99.90;;;;;;5099876;28;20484;-82
2022/09/19 10:09:07;;;;;;;3.13;1.60;;;9.60;99.90;;;;;;5095095;28;20458;-83
2022/09/19 10:11:45;;;;;;;0.50;0.40;;;9.50;99.90;;;;;;5095864;28;20535;-85
2022/09/19 10:14:18;;;;;;;0.57;0.40;;;9.50;99.90;;;;;;5098643;27;20547;-84
2022/09/19 10:16:47;;;;;;;0.67;0.40;;;9.40;99.90;;;;;;5101464;27;20890;-84
2022/09/19 10:19:25;;;;;;;0.40;0.40;;;9.50;99.90;;;;;;5106307;27;20442;-83
2022/09/19 10:21:53;;;;;;;1.07;0.57;;;9.60;99.90;;;;;;5105402;27;20515;-84
2022/09/19 10:24:47;;;;;;;0.50;0.40;;;9.70;99.90;;;;;;5100545;28;20531;-84
2022/09/19 10:27:19;;;;;;;2.93;0.50;;;9.70;99.90;;;;;;5103038;27;20454;-82
2022/09/19 10:29:52;;;;;;;0.70;0.40;;;9.80;99.90;;;;;;5101378;28;20554;-82
2022/09/19 10:32:23;;;;;;;0.70;0.50;;;9.90;99.90;;;;;;5106376;27;20456;-83
2022/09/19 10:34:50;;;;;;;0.50;0.40;;;9.90;99.90;;;;;;5108450;28;20454;-83
2022/09/19 10:37:18;;;;;;;2.83;0.50;;;10.00;99.90;;;;;;5114938;27;21061;-83
2022/09/19 10:39:48;;;;;;;0.40;0.40;;;9.90;99.90;;;;;;5112967;27;20455;-83
2022/09/19 10:42:38;;;;;;;0.50;0.43;;;9.80;99.90;;;;;;5111367;28;21128;-82
2022/09/19 10:45:19;;;;;;;1.27;0.40;;;9.70;99.90;;;;;;5105780;28;20957;-83
2022/09/19 10:47:48;;;;;;;0.60;0.50;;;10.00;99.90;;;;;;5101016;28;20941;-82
2022/09/19 10:50:19;;;;;;;0.73;0.40;;;10.20;99.90;;;;;;5095064;28;20461;-83
2022/09/19 10:52:48;;;;;;;3.43;0.53;;;10.40;99.90;;;;;;5092904;28;20466;-82
2022/09/19 10:55:20;;;;;;;1.67;0.70;;;10.30;99.90;;;;;;5104088;28;20769;-84
2022/09/19 10:57:59;;;;;;;0.70;0.50;;;10.50;99.90;;;;;;5104115;27;20462;-83
2022/09/19 11:00:28;;;;;;;0.50;0.40;;;10.30;99.90;;;;;;5105904;27;21009;-81
2022/09/19 11:03:06;;;;;;;1.50;0.43;;;10.40;99.90;;;;;;5101793;28;20648;-82
2022/09/19 11:05:36;;;;;;;2.80;0.60;;;10.60;99.90;;;;;;5105206;28;20461;-83
2022/09/19 11:08:22;;;;;;;3.17;0.70;;;10.50;99.90;;;;;;5102123;28;20999;-83
2022/09/19 11:10:49;;;;;;;3.17;0.60;;;10.40;99.90;;;;;;5105118;27;20462;-81
2022/09/19 11:13:20;;;;;;;1.83;1.37;;;10.40;99.90;;;;;;5102140;28;20558;-82
2022/09/19 11:16:03;;;;;;;1.07;0.70;;;10.40;99.90;;;;;;5098728;27;20535;-82
2022/09/19 11:18:44;;;;;;;1.07;0.47;;;10.40;99.90;;;;;;5098963;28;20481;-83
2022/09/19 11:21:17;;;;;;;0.67;0.40;;;10.50;99.90;;;;;;5100074;28;20446;-84
2022/09/19 11:24:09;;;;;;;1.30;0.50;;;10.50;99.90;;;;;;5100653;28;20462;-83
2022/09/19 11:26:54;;;;;;;0.70;0.50;;;10.50;99.90;;;;;;5103183;28;20454;-81
2022/09/19 11:29:36;;;;;;;0.40;0.30;;;10.60;99.90;;;;;;5101530;27;20481;-81
2022/09/19 11:32:14;;;;;;;3.13;0.60;;;10.60;99.90;;;;;;5094529;28;20496;-82
2022/09/19 11:34:49;;;;;;;1.73;0.70;;;10.40;99.90;;;;;;5098366;28;21265;-82
2022/09/19 11:37:27;;;;;;;1.33;0.43;;;10.40;99.90;;;;;;5110207;27;20504;-81
2022/09/19 11:40:05;;;;;;;1.03;0.70;;;10.30;99.90;;;;;;5115705;27;20437;-83
2022/09/19 11:42:42;;;;;;;0.60;0.40;;;10.20;99.90;;;;;;5107317;28;20457;-82
2022/09/19 11:45:16;;;;;;;1.80;0.90;;;10.20;99.90;;;;;;5097024;28;20466;-80
2022/09/19 11:48:02;;;;;;;0.50;0.40;;;10.10;99.90;;;;;;5097287;28;20459;-82
2022/09/19 11:50:45;;;;;;;1.80;0.40;;;10.10;99.90;;;;;;5101097;28;20450;-82
2022/09/19 11:53:35;;;;;;;0.67;0.50;;;10.20;99.90;;;;;;5111180;28;20518;-81
2022/09/19 11:56:14;;;;;;;3.37;0.63;;;10.10;99.90;;;;;;5086233;28;20823;-82
2022/09/19 11:58:51;;;;;;;1.00;0.60;;;10.10;99.90;;;;;;5098779;28;20973;-82
2022/09/19 12:01:30;;;;;;;0.60;0.50;;;10.10;99.90;;;;;;5092182;28;20458;-80
2022/09/19 12:04:18;;;;;;;0.50;0.50;;;10.10;99.90;;;;;;5104192;28;21228;-81
2022/09/19 12:06:59;;;;;;;0.60;0.60;;;10.10;99.90;;;;;;5097928;28;20458;-81
2022/09/19 12:09:33;;;;;;;0.90;0.60;;;10.20;99.90;;;;;;5109981;28;20554;-81
2022/09/19 12:12:05;;;;;;;1.83;0.50;;;10.20;99.90;;;;;;5087789;28;20491;-79
2022/09/19 12:14:39;;;;;;;0.93;0.50;;;10.20;99.90;;;;;;5085926;28;20451;-81
2022/09/19 12:17:15;;;;;;;1.57;0.60;;;10.20;99.90;;;;;;5100312;28;20489;-80
2022/09/19 12:19:46;;;;;;;1.10;0.50;;;10.20;99.90;;;;;;5101893;28;20457;-80
2022/09/19 12:22:17;;;;;;;1.00;0.50;;;10.30;99.90;;;;;;5099816;28;20508;-81
2022/09/19 12:24:54;;;;;;;1.13;0.50;;;10.30;99.90;;;;;;5095997;28;20514;-81
2022/09/19 12:27:28;;;;;;;1.13;0.50;;;10.30;99.90;;;;;;5095400;28;20472;-81
2022/09/19 12:30:05;;;;;;;2.50;0.57;;;10.30;99.90;;;;;;5102296;28;20554;-80
2022/09/19 12:32:38;;;;;;;1.90;0.60;;;10.30;99.90;;;;;;5101616;28;20465;-82
2022/09/19 12:35:15;;;;;;;0.80;0.60;;;10.30;99.90;;;;;;5095419;28;20487;-79
2022/09/19 12:37:50;;;;;;;1.73;0.40;;;10.30;99.90;;;;;;5099502;28;20477;-81
2022/09/19 12:40:24;;;;;;;0.80;0.50;;;10.30;99.90;;;;;;5094339;28;20471;-81
2022/09/19 12:42:57;;;;;;;2.20;0.60;;;10.30;99.90;;;;;;5095984;28;20551;-81
2022/09/19 12:45:30;;;;;;;2.53;0.50;;;10.30;99.90;;;;;;5094026;28;20462;-79
2022/09/19 12:48:14;;;;;;;1.87;0.93;;;10.40;99.90;;;;;;5092303;28;20465;-81
2022/09/19 12:50:44;;;;;;;1.73;1.33;;;10.50;99.90;;;;;;5104175;28;20465;-81
2022/09/19 12:53:31;;;;;;;1.77;0.80;;;10.60;99.90;;;;;;5111639;27;20438;-82
2022/09/19 12:56:03;;;;;;;0.60;0.40;;;10.80;99.90;;;;;;5102545;28;20465;-83
2022/09/19 12:58:37;;;;;;;1.03;0.50;;;10.90;99.90;;;;;;5091016;27;20516;-82
2022/09/19 13:01:18;;;;;;;1.07;0.40;;;10.90;99.90;;;;;;5103973;27;21069;-80
2022/09/19 13:03:52;;;;;;;0.90;0.40;;;11.00;99.90;;;;;;5091767;27;20470;-81
2022/09/19 13:06:24;;;;;;;0.60;0.50;;;10.90;99.90;;;;;;5104051;28;20481;-82
2022/09/19 13:08:55;;;;;;;1.23;0.43;;;10.90;99.90;;;;;;5098426;27;20468;-80
2022/09/19 13:11:30;;;;;;;3.90;0.50;;;10.90;99.90;;;;;;5098479;27;20543;-81
2022/09/19 13:14:05;;;;;;;0.47;0.40;;;11.00;99.90;;;;;;5101536;27;20548;-81
2022/09/19 13:16:34;;;;;;;0.50;0.40;;;11.20;99.90;;;;;;5097518;28;20573;-82
2022/09/19 13:24:54;;;;;;;0.50;0.30;;;11.70;99.90;;;;;;5091799;27;20502;-81
2022/09/19 13:27:21;;;;;;;0.60;0.40;;;11.90;99.90;;;;;;5098008;27;20537;-81
2022/09/19 13:29:51;;;;;;;0.53;0.37;;;11.90;99.90;;;;;;5105816;27;20559;-81
2022/09/19 13:32:48;;;;;;;0.80;0.50;;;11.90;99.90;;;;;;5103862;27;20466;-81
2022/09/19 13:35:19;;;;;;;4.30;0.37;;;11.80;99.90;;;;;;5107255;27;20844;-80
2022/09/19 13:38:17;;;;;;;9.73;0.47;;;11.80;99.90;;;;;;5099339;27;20485;-83
2022/09/19 13:40:50;;;;;;;0.97;0.40;;;11.90;99.90;;;;;;5104134;28;20847;-80